sensor_id;sensor_type;location;lat;lon;timestamp;P1;durP1;ratioP1;P2;durP2;ratioP2
47866;SDS011;33628;50.806;11.586;2023-05-10T00:00:38;6.63;;;3.28;;
47866;SDS011;33628;50.806;11.586;2023-05-10T00:03:04;4.82;;;3.30;;
47866;SDS011;33628;50.806;11.586;2023-05-10T00:05:31;6.25;;;2.83;;
47866;SDS011;33628;50.806;11.586;2023-05-10T00:07:58;5.78;;;3.30;;
47866;SDS011;33628;50.806;11.586;2023-05-10T00:10:24;7.65;;;3.65;;
47866;SDS011;33628;50.806;11.586;2023-05-10T00:12:51;6.53;;;3.35;;
47866;SDS011;33628;50.806;11.586;2023-05-10T00:15:17;7.93;;;3.00;;
47866;SDS011;33628;50.806;11.586;2023-05-10T00:17:45;4.80;;;2.80;;
47866;SDS011;33628;50.806;11.586;2023-05-10T00:20:12;4.03;;;2.70;;
47866;SDS011;33628;50.806;11.586;2023-05-10T00:22:39;3.65;;;3.03;;
47866;SDS011;33628;50.806;11.586;2023-05-10T00:25:06;5.47;;;2.90;;
47866;SDS011;33628;50.806;11.586;2023-05-10T00:27:34;5.35;;;2.83;;
47866;SDS011;33628;50.806;11.586;2023-05-10T00:30:00;3.95;;;2.40;;
47866;SDS011;33628;50.806;11.586;2023-05-10T00:32:28;3.55;;;2.85;;
47866;SDS011;33628;50.806;11.586;2023-05-10T00:34:56;4.35;;;2.90;;
47866;SDS011;33628;50.806;11.586;2023-05-10T00:37:23;5.03;;;2.55;;
47866;SDS011;33628;50.806;11.586;2023-05-10T00:39:50;8.73;;;2.70;;
47866;SDS011;33628;50.806;11.586;2023-05-10T00:42:17;5.40;;;2.58;;
47866;SDS011;33628;50.806;11.586;2023-05-10T00:44:43;4.93;;;3.17;;
47866;SDS011;33628;50.806;11.586;2023-05-10T00:47:11;5.55;;;2.55;;
47866;SDS011;33628;50.806;11.586;2023-05-10T00:49:37;4.50;;;2.72;;
47866;SDS011;33628;50.806;11.586;2023-05-10T00:52:06;5.05;;;2.83;;
47866;SDS011;33628;50.806;11.586;2023-05-10T00:54:32;6.10;;;2.60;;
47866;SDS011;33628;50.806;11.586;2023-05-10T00:56:59;6.65;;;2.67;;
47866;SDS011;33628;50.806;11.586;2023-05-10T00:59:27;5.05;;;3.00;;
47866;SDS011;33628;50.806;11.586;2023-05-10T01:01:55;5.65;;;2.50;;
47866;SDS011;33628;50.806;11.586;2023-05-10T01:04:22;5.63;;;2.72;;
47866;SDS011;33628;50.806;11.586;2023-05-10T01:06:51;3.40;;;2.30;;
47866;SDS011;33628;50.806;11.586;2023-05-10T01:09:21;7.60;;;2.53;;
47866;SDS011;33628;50.806;11.586;2023-05-10T01:11:48;4.25;;;2.88;;
47866;SDS011;33628;50.806;11.586;2023-05-10T01:14:16;4.10;;;2.85;;
47866;SDS011;33628;50.806;11.586;2023-05-10T01:16:44;4.50;;;2.45;;
47866;SDS011;33628;50.806;11.586;2023-05-10T01:19:17;6.45;;;2.60;;
47866;SDS011;33628;50.806;11.586;2023-05-10T01:21:48;7.43;;;2.83;;
47866;SDS011;33628;50.806;11.586;2023-05-10T01:24:40;6.57;;;2.60;;
47866;SDS011;33628;50.806;11.586;2023-05-10T01:27:50;6.47;;;2.60;;
47866;SDS011;33628;50.806;11.586;2023-05-10T01:33:39;3.70;;;2.58;;
47866;SDS011;33628;50.806;11.586;2023-05-10T01:36:12;7.63;;;3.08;;
47866;SDS011;33628;50.806;11.586;2023-05-10T01:38:43;4.78;;;3.00;;
47866;SDS011;33628;50.806;11.586;2023-05-10T01:41:14;3.30;;;2.50;;
47866;SDS011;33628;50.806;11.586;2023-05-10T01:43:45;3.67;;;2.50;;
47866;SDS011;33628;50.806;11.586;2023-05-10T01:46:20;3.25;;;2.42;;
47866;SDS011;33628;50.806;11.586;2023-05-10T01:48:53;3.10;;;2.40;;
47866;SDS011;33628;50.806;11.586;2023-05-10T01:51:23;6.53;;;2.60;;
47866;SDS011;33628;50.806;11.586;2023-05-10T01:53:56;6.47;;;2.80;;
47866;SDS011;33628;50.806;11.586;2023-05-10T01:56:24;4.50;;;2.88;;
47866;SDS011;33628;50.806;11.586;2023-05-10T01:58:52;5.75;;;2.90;;
47866;SDS011;33628;50.806;11.586;2023-05-10T02:01:19;4.93;;;2.90;;
47866;SDS011;33628;50.806;11.586;2023-05-10T02:03:46;4.15;;;3.08;;
47866;SDS011;33628;50.806;11.586;2023-05-10T02:06:15;5.15;;;3.17;;
47866;SDS011;33628;50.806;11.586;2023-05-10T02:08:42;3.28;;;2.83;;
47866;SDS011;33628;50.806;11.586;2023-05-10T02:11:09;3.60;;;2.85;;
47866;SDS011;33628;50.806;11.586;2023-05-10T02:13:38;4.15;;;2.67;;
47866;SDS011;33628;50.806;11.586;2023-05-10T02:16:05;8.40;;;3.03;;
47866;SDS011;33628;50.806;11.586;2023-05-10T02:18:34;4.47;;;3.00;;
47866;SDS011;33628;50.806;11.586;2023-05-10T02:21:01;3.28;;;2.55;;
47866;SDS011;33628;50.806;11.586;2023-05-10T02:23:30;4.97;;;2.58;;
47866;SDS011;33628;50.806;11.586;2023-05-10T02:25:56;12.05;;;3.03;;
47866;SDS011;33628;50.806;11.586;2023-05-10T02:28:23;5.07;;;2.78;;
47866;SDS011;33628;50.806;11.586;2023-05-10T02:30:51;4.68;;;2.65;;
47866;SDS011;33628;50.806;11.586;2023-05-10T02:33:18;4.47;;;2.50;;
47866;SDS011;33628;50.806;11.586;2023-05-10T02:35:45;4.63;;;2.65;;
47866;SDS011;33628;50.806;11.586;2023-05-10T02:38:13;6.07;;;2.63;;
47866;SDS011;33628;50.806;11.586;2023-05-10T02:40:42;5.57;;;2.97;;
47866;SDS011;33628;50.806;11.586;2023-05-10T02:43:09;4.32;;;2.83;;
47866;SDS011;33628;50.806;11.586;2023-05-10T02:45:39;3.50;;;2.50;;
47866;SDS011;33628;50.806;11.586;2023-05-10T02:48:06;4.07;;;2.83;;
47866;SDS011;33628;50.806;11.586;2023-05-10T02:50:33;6.57;;;3.28;;
47866;SDS011;33628;50.806;11.586;2023-05-10T02:53:00;7.03;;;3.25;;
47866;SDS011;33628;50.806;11.586;2023-05-10T02:55:31;6.40;;;3.20;;
47866;SDS011;33628;50.806;11.586;2023-05-10T02:58:02;6.03;;;2.47;;
47866;SDS011;33628;50.806;11.586;2023-05-10T03:00:29;6.40;;;2.88;;
47866;SDS011;33628;50.806;11.586;2023-05-10T03:02:56;4.25;;;2.90;;
47866;SDS011;33628;50.806;11.586;2023-05-10T03:05:24;4.07;;;2.88;;
47866;SDS011;33628;50.806;11.586;2023-05-10T03:07:51;5.30;;;3.05;;
47866;SDS011;33628;50.806;11.586;2023-05-10T03:10:18;4.20;;;2.88;;
47866;SDS011;33628;50.806;11.586;2023-05-10T03:12:52;8.13;;;3.03;;
47866;SDS011;33628;50.806;11.586;2023-05-10T03:15:28;7.53;;;2.90;;
47866;SDS011;33628;50.806;11.586;2023-05-10T03:18:01;6.88;;;2.97;;
47866;SDS011;33628;50.806;11.586;2023-05-10T03:20:34;6.05;;;3.20;;
47866;SDS011;33628;50.806;11.586;2023-05-10T03:23:04;5.22;;;3.10;;
47866;SDS011;33628;50.806;11.586;2023-05-10T03:25:34;3.63;;;2.67;;
47866;SDS011;33628;50.806;11.586;2023-05-10T03:28:03;5.53;;;2.92;;
47866;SDS011;33628;50.806;11.586;2023-05-10T03:30:34;6.07;;;3.45;;
47866;SDS011;33628;50.806;11.586;2023-05-10T03:33:05;5.55;;;2.67;;
47866;SDS011;33628;50.806;11.586;2023-05-10T03:35:35;5.85;;;3.25;;
47866;SDS011;33628;50.806;11.586;2023-05-10T03:38:02;6.35;;;2.95;;
47866;SDS011;33628;50.806;11.586;2023-05-10T03:40:28;6.15;;;2.88;;
47866;SDS011;33628;50.806;11.586;2023-05-10T03:42:57;7.88;;;3.10;;
47866;SDS011;33628;50.806;11.586;2023-05-10T03:45:24;6.65;;;2.97;;
47866;SDS011;33628;50.806;11.586;2023-05-10T03:47:52;4.65;;;3.50;;
47866;SDS011;33628;50.806;11.586;2023-05-10T03:50:19;4.05;;;3.35;;
47866;SDS011;33628;50.806;11.586;2023-05-10T03:52:47;5.68;;;3.38;;
47866;SDS011;33628;50.806;11.586;2023-05-10T03:55:14;4.32;;;2.88;;
47866;SDS011;33628;50.806;11.586;2023-05-10T03:57:42;4.85;;;3.35;;
47866;SDS011;33628;50.806;11.586;2023-05-10T04:00:09;7.20;;;3.20;;
47866;SDS011;33628;50.806;11.586;2023-05-10T04:02:41;5.57;;;3.00;;
47866;SDS011;33628;50.806;11.586;2023-05-10T04:05:14;7.25;;;3.92;;
47866;SDS011;33628;50.806;11.586;2023-05-10T04:07:41;5.93;;;3.00;;
47866;SDS011;33628;50.806;11.586;2023-05-10T04:10:10;4.68;;;2.80;;
47866;SDS011;33628;50.806;11.586;2023-05-10T04:12:37;8.82;;;3.33;;
47866;SDS011;33628;50.806;11.586;2023-05-10T04:15:04;5.38;;;3.00;;
47866;SDS011;33628;50.806;11.586;2023-05-10T04:17:32;5.38;;;2.85;;
47866;SDS011;33628;50.806;11.586;2023-05-10T04:27:39;4.07;;;3.13;;
47866;SDS011;33628;50.806;11.586;2023-05-10T04:30:07;10.02;;;4.05;;
47866;SDS011;33628;50.806;11.586;2023-05-10T04:32:34;5.30;;;3.38;;
47866;SDS011;33628;50.806;11.586;2023-05-10T04:35:00;4.65;;;3.83;;
47866;SDS011;33628;50.806;11.586;2023-05-10T04:37:29;5.18;;;3.28;;
47866;SDS011;33628;50.806;11.586;2023-05-10T04:39:56;5.15;;;3.38;;
47866;SDS011;33628;50.806;11.586;2023-05-10T04:42:22;8.48;;;3.40;;
47866;SDS011;33628;50.806;11.586;2023-05-10T04:44:50;5.78;;;3.75;;
47866;SDS011;33628;50.806;11.586;2023-05-10T04:47:17;5.82;;;2.60;;
47866;SDS011;33628;50.806;11.586;2023-05-10T04:49:47;4.82;;;2.97;;
47866;SDS011;33628;50.806;11.586;2023-05-10T04:52:13;4.55;;;3.20;;
47866;SDS011;33628;50.806;11.586;2023-05-10T04:54:40;4.70;;;2.80;;
47866;SDS011;33628;50.806;11.586;2023-05-10T04:57:07;4.45;;;3.25;;
47866;SDS011;33628;50.806;11.586;2023-05-10T04:59:35;7.35;;;3.30;;
47866;SDS011;33628;50.806;11.586;2023-05-10T05:02:03;8.50;;;3.50;;
47866;SDS011;33628;50.806;11.586;2023-05-10T05:04:31;11.02;;;3.38;;
47866;SDS011;33628;50.806;11.586;2023-05-10T05:06:57;7.55;;;3.30;;
47866;SDS011;33628;50.806;11.586;2023-05-10T05:09:24;4.80;;;3.38;;
47866;SDS011;33628;50.806;11.586;2023-05-10T05:11:51;5.05;;;2.97;;
47866;SDS011;33628;50.806;11.586;2023-05-10T05:14:17;5.10;;;3.85;;
47866;SDS011;33628;50.806;11.586;2023-05-10T05:16:46;7.18;;;3.45;;
47866;SDS011;33628;50.806;11.586;2023-05-10T05:19:14;6.03;;;3.70;;
47866;SDS011;33628;50.806;11.586;2023-05-10T05:21:41;6.95;;;3.30;;
47866;SDS011;33628;50.806;11.586;2023-05-10T05:24:07;6.80;;;3.70;;
47866;SDS011;33628;50.806;11.586;2023-05-10T05:26:34;5.20;;;3.75;;
47866;SDS011;33628;50.806;11.586;2023-05-10T05:29:01;5.63;;;3.75;;
47866;SDS011;33628;50.806;11.586;2023-05-10T05:31:27;5.65;;;3.33;;
47866;SDS011;33628;50.806;11.586;2023-05-10T05:33:54;6.55;;;3.20;;
47866;SDS011;33628;50.806;11.586;2023-05-10T05:36:22;4.95;;;3.45;;
47866;SDS011;33628;50.806;11.586;2023-05-10T05:38:52;5.45;;;3.85;;
47866;SDS011;33628;50.806;11.586;2023-05-10T05:41:18;5.72;;;3.38;;
47866;SDS011;33628;50.806;11.586;2023-05-10T05:43:45;6.00;;;3.70;;
47866;SDS011;33628;50.806;11.586;2023-05-10T05:46:12;5.80;;;3.92;;
47866;SDS011;33628;50.806;11.586;2023-05-10T05:48:38;9.98;;;4.53;;
47866;SDS011;33628;50.806;11.586;2023-05-10T05:51:05;6.03;;;3.78;;
47866;SDS011;33628;50.806;11.586;2023-05-10T05:53:33;5.60;;;3.90;;
47866;SDS011;33628;50.806;11.586;2023-05-10T05:56:00;7.78;;;3.83;;
47866;SDS011;33628;50.806;11.586;2023-05-10T05:58:27;4.88;;;3.33;;
47866;SDS011;33628;50.806;11.586;2023-05-10T06:00:54;8.95;;;4.07;;
47866;SDS011;33628;50.806;11.586;2023-05-10T06:03:23;4.43;;;3.53;;
47866;SDS011;33628;50.806;11.586;2023-05-10T06:05:50;5.13;;;3.90;;
47866;SDS011;33628;50.806;11.586;2023-05-10T06:08:17;6.38;;;3.47;;
47866;SDS011;33628;50.806;11.586;2023-05-10T06:10:45;7.47;;;4.55;;
47866;SDS011;33628;50.806;11.586;2023-05-10T06:13:12;7.85;;;3.92;;
47866;SDS011;33628;50.806;11.586;2023-05-10T06:15:38;5.45;;;3.92;;
47866;SDS011;33628;50.806;11.586;2023-05-10T06:18:05;5.70;;;3.95;;
47866;SDS011;33628;50.806;11.586;2023-05-10T06:20:33;8.15;;;4.20;;
47866;SDS011;33628;50.806;11.586;2023-05-10T06:23:00;6.45;;;3.80;;
47866;SDS011;33628;50.806;11.586;2023-05-10T06:29:34;6.20;;;3.85;;
47866;SDS011;33628;50.806;11.586;2023-05-10T06:32:01;6.97;;;3.90;;
47866;SDS011;33628;50.806;11.586;2023-05-10T06:34:28;4.95;;;3.75;;
47866;SDS011;33628;50.806;11.586;2023-05-10T06:36:54;5.97;;;3.92;;
47866;SDS011;33628;50.806;11.586;2023-05-10T06:39:21;5.60;;;4.05;;
47866;SDS011;33628;50.806;11.586;2023-05-10T06:41:48;5.05;;;3.83;;
47866;SDS011;33628;50.806;11.586;2023-05-10T06:44:15;5.18;;;4.28;;
47866;SDS011;33628;50.806;11.586;2023-05-10T06:46:43;7.97;;;4.63;;
47866;SDS011;33628;50.806;11.586;2023-05-10T06:49:10;8.48;;;4.40;;
47866;SDS011;33628;50.806;11.586;2023-05-10T06:51:37;8.23;;;4.20;;
47866;SDS011;33628;50.806;11.586;2023-05-10T06:54:03;5.75;;;4.70;;
47866;SDS011;33628;50.806;11.586;2023-05-10T06:56:30;5.05;;;4.55;;
47866;SDS011;33628;50.806;11.586;2023-05-10T06:59:00;6.05;;;4.95;;
47866;SDS011;33628;50.806;11.586;2023-05-10T07:01:26;4.53;;;3.97;;
47866;SDS011;33628;50.806;11.586;2023-05-10T07:03:54;5.60;;;4.45;;
47866;SDS011;33628;50.806;11.586;2023-05-10T07:06:21;5.05;;;4.43;;
47866;SDS011;33628;50.806;11.586;2023-05-10T07:08:47;8.38;;;4.10;;
47866;SDS011;33628;50.806;11.586;2023-05-10T07:11:14;8.70;;;4.32;;
47866;SDS011;33628;50.806;11.586;2023-05-10T07:13:41;7.20;;;5.00;;
47866;SDS011;33628;50.806;11.586;2023-05-10T07:16:09;9.57;;;4.68;;
47866;SDS011;33628;50.806;11.586;2023-05-10T07:18:37;6.53;;;5.03;;
47866;SDS011;33628;50.806;11.586;2023-05-10T07:21:05;6.18;;;4.28;;
47866;SDS011;33628;50.806;11.586;2023-05-10T07:23:31;6.70;;;4.60;;
47866;SDS011;33628;50.806;11.586;2023-05-10T07:25:58;7.75;;;4.72;;
47866;SDS011;33628;50.806;11.586;2023-05-10T07:28:25;8.23;;;4.93;;
47866;SDS011;33628;50.806;11.586;2023-05-10T07:30:52;5.40;;;4.35;;
47866;SDS011;33628;50.806;11.586;2023-05-10T07:33:18;8.43;;;4.53;;
47866;SDS011;33628;50.806;11.586;2023-05-10T07:35:45;8.15;;;5.00;;
47866;SDS011;33628;50.806;11.586;2023-05-10T07:38:13;10.93;;;5.22;;
47866;SDS011;33628;50.806;11.586;2023-05-10T07:40:40;8.32;;;5.10;;
47866;SDS011;33628;50.806;11.586;2023-05-10T07:43:07;8.50;;;4.90;;
47866;SDS011;33628;50.806;11.586;2023-05-10T07:45:33;7.75;;;5.13;;
47866;SDS011;33628;50.806;11.586;2023-05-10T07:48:00;7.40;;;4.90;;
47866;SDS011;33628;50.806;11.586;2023-05-10T07:50:27;7.72;;;4.70;;
47866;SDS011;33628;50.806;11.586;2023-05-10T07:52:53;8.13;;;4.90;;
47866;SDS011;33628;50.806;11.586;2023-05-10T07:55:21;12.77;;;6.82;;
47866;SDS011;33628;50.806;11.586;2023-05-10T07:57:48;11.15;;;6.15;;
47866;SDS011;33628;50.806;11.586;2023-05-10T08:00:16;8.45;;;5.32;;
47866;SDS011;33628;50.806;11.586;2023-05-10T08:02:44;6.93;;;5.05;;
47866;SDS011;33628;50.806;11.586;2023-05-10T08:05:10;14.23;;;8.05;;
47866;SDS011;33628;50.806;11.586;2023-05-10T08:07:37;7.80;;;5.80;;
47866;SDS011;33628;50.806;11.586;2023-05-10T08:10:04;6.65;;;6.03;;
47866;SDS011;33628;50.806;11.586;2023-05-10T08:12:33;5.60;;;4.93;;
47866;SDS011;33628;50.806;11.586;2023-05-10T08:15:00;8.30;;;6.55;;
47866;SDS011;33628;50.806;11.586;2023-05-10T08:17:26;9.48;;;8.02;;
47866;SDS011;33628;50.806;11.586;2023-05-10T08:19:56;6.57;;;5.70;;
47866;SDS011;33628;50.806;11.586;2023-05-10T08:22:23;7.95;;;7.10;;
47866;SDS011;33628;50.806;11.586;2023-05-10T08:24:49;6.88;;;5.22;;
47866;SDS011;33628;50.806;11.586;2023-05-10T08:27:16;5.78;;;4.70;;
47866;SDS011;33628;50.806;11.586;2023-05-10T08:29:44;8.63;;;5.05;;
47866;SDS011;33628;50.806;11.586;2023-05-10T08:32:11;6.45;;;5.20;;
47866;SDS011;33628;50.806;11.586;2023-05-10T08:34:37;6.75;;;5.25;;
47866;SDS011;33628;50.806;11.586;2023-05-10T08:37:04;4.93;;;4.40;;
47866;SDS011;33628;50.806;11.586;2023-05-10T08:39:33;5.35;;;3.88;;
47866;SDS011;33628;50.806;11.586;2023-05-10T08:42:01;4.15;;;3.67;;
47866;SDS011;33628;50.806;11.586;2023-05-10T08:44:29;4.78;;;4.20;;
47866;SDS011;33628;50.806;11.586;2023-05-10T08:46:59;5.82;;;4.25;;
47866;SDS011;33628;50.806;11.586;2023-05-10T08:49:29;5.30;;;4.25;;
47866;SDS011;33628;50.806;11.586;2023-05-10T08:51:58;5.25;;;4.60;;
47866;SDS011;33628;50.806;11.586;2023-05-10T08:54:29;5.40;;;4.38;;
47866;SDS011;33628;50.806;11.586;2023-05-10T08:56:56;7.30;;;4.93;;
47866;SDS011;33628;50.806;11.586;2023-05-10T08:59:23;4.43;;;3.58;;
47866;SDS011;33628;50.806;11.586;2023-05-10T09:01:50;4.07;;;3.45;;
47866;SDS011;33628;50.806;11.586;2023-05-10T09:04:20;3.88;;;3.47;;
47866;SDS011;33628;50.806;11.586;2023-05-10T09:06:47;5.47;;;4.30;;
47866;SDS011;33628;50.806;11.586;2023-05-10T09:09:14;5.85;;;3.70;;
47866;SDS011;33628;50.806;11.586;2023-05-10T09:11:41;4.68;;;3.65;;
47866;SDS011;33628;50.806;11.586;2023-05-10T09:14:08;3.28;;;2.90;;
47866;SDS011;33628;50.806;11.586;2023-05-10T09:16:35;5.15;;;3.67;;
47866;SDS011;33628;50.806;11.586;2023-05-10T09:19:02;3.20;;;2.90;;
47866;SDS011;33628;50.806;11.586;2023-05-10T09:21:30;3.78;;;3.28;;
47866;SDS011;33628;50.806;11.586;2023-05-10T09:23:58;4.20;;;3.25;;
47866;SDS011;33628;50.806;11.586;2023-05-10T09:26:29;4.45;;;3.00;;
47866;SDS011;33628;50.806;11.586;2023-05-10T09:28:56;5.10;;;3.10;;
47866;SDS011;33628;50.806;11.586;2023-05-10T09:31:24;7.55;;;2.72;;
47866;SDS011;33628;50.806;11.586;2023-05-10T09:33:53;6.85;;;3.40;;
47866;SDS011;33628;50.806;11.586;2023-05-10T09:36:20;3.47;;;2.75;;
47866;SDS011;33628;50.806;11.586;2023-05-10T09:38:48;3.90;;;2.70;;
47866;SDS011;33628;50.806;11.586;2023-05-10T09:41:17;3.08;;;2.40;;
47866;SDS011;33628;50.806;11.586;2023-05-10T09:43:44;2.80;;;2.53;;
47866;SDS011;33628;50.806;11.586;2023-05-10T09:46:11;2.72;;;2.08;;
47866;SDS011;33628;50.806;11.586;2023-05-10T09:48:39;2.92;;;2.08;;
47866;SDS011;33628;50.806;11.586;2023-05-10T09:51:08;2.65;;;2.40;;
47866;SDS011;33628;50.806;11.586;2023-05-10T09:53:34;3.63;;;2.40;;
47866;SDS011;33628;50.806;11.586;2023-05-10T09:56:03;3.28;;;2.00;;
47866;SDS011;33628;50.806;11.586;2023-05-10T09:58:32;3.35;;;2.10;;
47866;SDS011;33628;50.806;11.586;2023-05-10T10:01:04;1.67;;;1.55;;
47866;SDS011;33628;50.806;11.586;2023-05-10T10:03:30;2.22;;;1.70;;
47866;SDS011;33628;50.806;11.586;2023-05-10T10:05:57;2.28;;;1.65;;
47866;SDS011;33628;50.806;11.586;2023-05-10T10:08:24;1.98;;;1.48;;
47866;SDS011;33628;50.806;11.586;2023-05-10T10:10:51;1.83;;;1.55;;
47866;SDS011;33628;50.806;11.586;2023-05-10T10:13:20;1.83;;;1.48;;
47866;SDS011;33628;50.806;11.586;2023-05-10T10:15:47;1.50;;;1.40;;
47866;SDS011;33628;50.806;11.586;2023-05-10T10:18:17;1.52;;;1.27;;
47866;SDS011;33628;50.806;11.586;2023-05-10T10:20:44;1.58;;;1.35;;
47866;SDS011;33628;50.806;11.586;2023-05-10T10:23:10;1.45;;;1.20;;
47866;SDS011;33628;50.806;11.586;2023-05-10T10:25:37;1.55;;;1.17;;
47866;SDS011;33628;50.806;11.586;2023-05-10T10:28:10;2.55;;;1.83;;
47866;SDS011;33628;50.806;11.586;2023-05-10T10:30:45;1.42;;;1.08;;
47866;SDS011;33628;50.806;11.586;2023-05-10T10:33:22;2.08;;;1.10;;
47866;SDS011;33628;50.806;11.586;2023-05-10T10:36:03;2.00;;;1.20;;
47866;SDS011;33628;50.806;11.586;2023-05-10T10:38:38;3.08;;;1.10;;
47866;SDS011;33628;50.806;11.586;2023-05-10T10:41:29;1.33;;;1.15;;
47866;SDS011;33628;50.806;11.586;2023-05-10T10:47:01;2.88;;;1.20;;
47866;SDS011;33628;50.806;11.586;2023-05-10T10:49:31;1.40;;;0.98;;
47866;SDS011;33628;50.806;11.586;2023-05-10T10:52:20;4.10;;;1.00;;
47866;SDS011;33628;50.806;11.586;2023-05-10T10:54:52;1.67;;;1.00;;
47866;SDS011;33628;50.806;11.586;2023-05-10T10:57:21;1.55;;;1.00;;
47866;SDS011;33628;50.806;11.586;2023-05-10T10:59:49;2.75;;;1.20;;
47866;SDS011;33628;50.806;11.586;2023-05-10T11:02:44;2.13;;;1.30;;
47866;SDS011;33628;50.806;11.586;2023-05-10T11:08:15;1.23;;;1.08;;
47866;SDS011;33628;50.806;11.586;2023-05-10T11:11:02;2.22;;;1.10;;
47866;SDS011;33628;50.806;11.586;2023-05-10T11:13:36;1.83;;;1.02;;
47866;SDS011;33628;50.806;11.586;2023-05-10T11:16:11;1.58;;;1.15;;
47866;SDS011;33628;50.806;11.586;2023-05-10T11:26:57;1.98;;;1.23;;
47866;SDS011;33628;50.806;11.586;2023-05-10T11:29:24;1.60;;;1.30;;
47866;SDS011;33628;50.806;11.586;2023-05-10T11:31:52;1.15;;;1.05;;
47866;SDS011;33628;50.806;11.586;2023-05-10T11:34:31;1.30;;;1.05;;
47866;SDS011;33628;50.806;11.586;2023-05-10T11:37:05;5.63;;;1.23;;
47866;SDS011;33628;50.806;11.586;2023-05-10T11:39:32;1.90;;;1.05;;
47866;SDS011;33628;50.806;11.586;2023-05-10T11:42:00;2.10;;;1.30;;
47866;SDS011;33628;50.806;11.586;2023-05-10T11:44:28;1.80;;;1.20;;
47866;SDS011;33628;50.806;11.586;2023-05-10T11:46:57;1.33;;;1.15;;
47866;SDS011;33628;50.806;11.586;2023-05-10T11:49:24;3.17;;;1.20;;
47866;SDS011;33628;50.806;11.586;2023-05-10T11:51:52;2.13;;;1.20;;
47866;SDS011;33628;50.806;11.586;2023-05-10T11:54:19;1.63;;;1.10;;
47866;SDS011;33628;50.806;11.586;2023-05-10T11:56:45;1.65;;;1.10;;
47866;SDS011;33628;50.806;11.586;2023-05-10T11:59:13;1.25;;;1.15;;
47866;SDS011;33628;50.806;11.586;2023-05-10T12:01:41;2.08;;;1.30;;
47866;SDS011;33628;50.806;11.586;2023-05-10T12:04:07;4.22;;;1.48;;
47866;SDS011;33628;50.806;11.586;2023-05-10T12:06:36;1.55;;;1.30;;
47866;SDS011;33628;50.806;11.586;2023-05-10T12:09:06;2.10;;;1.40;;
47866;SDS011;33628;50.806;11.586;2023-05-10T12:11:36;3.33;;;1.50;;
47866;SDS011;33628;50.806;11.586;2023-05-10T12:14:04;1.95;;;1.40;;
47866;SDS011;33628;50.806;11.586;2023-05-10T12:16:32;2.63;;;1.63;;
47866;SDS011;33628;50.806;11.586;2023-05-10T12:19:00;1.67;;;1.58;;
47866;SDS011;33628;50.806;11.586;2023-05-10T12:21:27;1.45;;;1.33;;
47866;SDS011;33628;50.806;11.586;2023-05-10T12:23:58;2.15;;;1.65;;
47866;SDS011;33628;50.806;11.586;2023-05-10T12:26:27;1.38;;;1.27;;
47866;SDS011;33628;50.806;11.586;2023-05-10T12:28:54;1.30;;;1.20;;
47866;SDS011;33628;50.806;11.586;2023-05-10T12:31:21;1.20;;;1.10;;
47866;SDS011;33628;50.806;11.586;2023-05-10T12:33:49;1.13;;;0.90;;
47866;SDS011;33628;50.806;11.586;2023-05-10T12:36:16;1.70;;;1.20;;
47866;SDS011;33628;50.806;11.586;2023-05-10T12:38:44;4.20;;;1.48;;
47866;SDS011;33628;50.806;11.586;2023-05-10T12:41:15;3.80;;;1.50;;
47866;SDS011;33628;50.806;11.586;2023-05-10T12:43:42;4.55;;;1.80;;
47866;SDS011;33628;50.806;11.586;2023-05-10T12:46:10;1.40;;;1.10;;
47866;SDS011;33628;50.806;11.586;2023-05-10T12:48:37;1.27;;;1.15;;
47866;SDS011;33628;50.806;11.586;2023-05-10T12:51:06;3.35;;;0.80;;
47866;SDS011;33628;50.806;11.586;2023-05-10T12:53:42;1.42;;;0.90;;
47866;SDS011;33628;50.806;11.586;2023-05-10T12:56:11;2.60;;;0.90;;
47866;SDS011;33628;50.806;11.586;2023-05-10T12:58:38;1.35;;;0.80;;
47866;SDS011;33628;50.806;11.586;2023-05-10T13:01:05;1.30;;;0.90;;
47866;SDS011;33628;50.806;11.586;2023-05-10T13:03:35;1.05;;;0.70;;
47866;SDS011;33628;50.806;11.586;2023-05-10T13:06:02;0.50;;;0.50;;
47866;SDS011;33628;50.806;11.586;2023-05-10T13:08:31;0.68;;;0.40;;
47866;SDS011;33628;50.806;11.586;2023-05-10T13:11:01;1.30;;;0.70;;
47866;SDS011;33628;50.806;11.586;2023-05-10T13:13:29;0.25;;;0.25;;
47866;SDS011;33628;50.806;11.586;2023-05-10T13:15:55;0.65;;;0.40;;
47866;SDS011;33628;50.806;11.586;2023-05-10T13:18:23;0.30;;;0.30;;
47866;SDS011;33628;50.806;11.586;2023-05-10T13:20:50;1.65;;;0.43;;
47866;SDS011;33628;50.806;11.586;2023-05-10T13:23:17;0.98;;;0.50;;
47866;SDS011;33628;50.806;11.586;2023-05-10T13:25:45;1.95;;;0.40;;
47866;SDS011;33628;50.806;11.586;2023-05-10T13:28:11;0.57;;;0.40;;
47866;SDS011;33628;50.806;11.586;2023-05-10T13:30:38;0.60;;;0.30;;
47866;SDS011;33628;50.806;11.586;2023-05-10T13:33:05;1.02;;;0.40;;
47866;SDS011;33628;50.806;11.586;2023-05-10T13:35:31;1.10;;;0.60;;
47866;SDS011;33628;50.806;11.586;2023-05-10T13:37:58;0.40;;;0.30;;
47866;SDS011;33628;50.806;11.586;2023-05-10T13:40:25;1.08;;;0.38;;
47866;SDS011;33628;50.806;11.586;2023-05-10T13:42:55;0.70;;;0.60;;
47866;SDS011;33628;50.806;11.586;2023-05-10T13:45:23;0.82;;;0.40;;
47866;SDS011;33628;50.806;11.586;2023-05-10T13:47:53;1.50;;;0.55;;
47866;SDS011;33628;50.806;11.586;2023-05-10T13:50:23;2.00;;;0.60;;
47866;SDS011;33628;50.806;11.586;2023-05-10T13:52:51;3.33;;;0.55;;
47866;SDS011;33628;50.806;11.586;2023-05-10T13:55:18;1.00;;;0.40;;
47866;SDS011;33628;50.806;11.586;2023-05-10T13:57:45;3.42;;;0.60;;
47866;SDS011;33628;50.806;11.586;2023-05-10T14:00:14;0.68;;;0.55;;
47866;SDS011;33628;50.806;11.586;2023-05-10T14:02:42;5.40;;;0.52;;
47866;SDS011;33628;50.806;11.586;2023-05-10T14:05:08;1.48;;;0.60;;
47866;SDS011;33628;50.806;11.586;2023-05-10T14:07:35;0.73;;;0.47;;
47866;SDS011;33628;50.806;11.586;2023-05-10T14:10:02;2.58;;;0.47;;
47866;SDS011;33628;50.806;11.586;2023-05-10T14:12:29;0.57;;;0.38;;
47866;SDS011;33628;50.806;11.586;2023-05-10T14:14:56;0.68;;;0.50;;
47866;SDS011;33628;50.806;11.586;2023-05-10T14:17:25;1.85;;;0.80;;
47866;SDS011;33628;50.806;11.586;2023-05-10T14:19:52;1.42;;;0.40;;
47866;SDS011;33628;50.806;11.586;2023-05-10T14:22:19;0.93;;;0.30;;
47866;SDS011;33628;50.806;11.586;2023-05-10T14:24:46;0.30;;;0.30;;
47866;SDS011;33628;50.806;11.586;2023-05-10T14:27:13;1.45;;;0.60;;
47866;SDS011;33628;50.806;11.586;2023-05-10T14:29:40;0.75;;;0.30;;
47866;SDS011;33628;50.806;11.586;2023-05-10T14:32:07;1.17;;;0.47;;
47866;SDS011;33628;50.806;11.586;2023-05-10T14:34:35;1.63;;;0.30;;
47866;SDS011;33628;50.806;11.586;2023-05-10T14:37:03;0.47;;;0.40;;
47866;SDS011;33628;50.806;11.586;2023-05-10T14:39:30;0.28;;;0.25;;
47866;SDS011;33628;50.806;11.586;2023-05-10T14:41:57;0.68;;;0.30;;
47866;SDS011;33628;50.806;11.586;2023-05-10T14:44:24;0.40;;;0.40;;
47866;SDS011;33628;50.806;11.586;2023-05-10T14:46:51;2.65;;;0.30;;
47866;SDS011;33628;50.806;11.586;2023-05-10T14:49:18;1.90;;;0.40;;
47866;SDS011;33628;50.806;11.586;2023-05-10T14:51:46;0.73;;;0.20;;
47866;SDS011;33628;50.806;11.586;2023-05-10T14:54:13;1.42;;;0.20;;
47866;SDS011;33628;50.806;11.586;2023-05-10T14:56:39;1.75;;;0.32;;
47866;SDS011;33628;50.806;11.586;2023-05-10T14:59:07;0.60;;;0.40;;
47866;SDS011;33628;50.806;11.586;2023-05-10T15:01:34;1.80;;;0.35;;
47866;SDS011;33628;50.806;11.586;2023-05-10T15:04:03;2.35;;;0.35;;
47866;SDS011;33628;50.806;11.586;2023-05-10T15:06:33;0.52;;;0.40;;
47866;SDS011;33628;50.806;11.586;2023-05-10T15:09:01;1.73;;;0.40;;